createdAt,value
2022-10-25T00:01:36.383Z,15.69
2022-10-25T00:04:07.524Z,15.68
2022-10-25T00:06:38.394Z,15.67
2022-10-25T00:09:09.359Z,15.65
2022-10-25T00:11:40.525Z,15.64
2022-10-25T00:14:15.927Z,15.63
2022-10-25T00:16:46.799Z,15.62
2022-10-25T00:19:17.839Z,15.62
2022-10-25T00:21:48.743Z,15.61
2022-10-25T00:24:19.633Z,15.58
2022-10-25T00:26:50.578Z,15.56
2022-10-25T00:29:21.511Z,15.54
2022-10-25T00:31:52.359Z,15.52
2022-10-25T00:34:23.194Z,15.52
2022-10-25T00:36:53.986Z,15.51
2022-10-25T00:39:24.803Z,15.51
2022-10-25T00:41:55.652Z,15.51
2022-10-25T00:44:52.739Z,15.49
2022-10-25T00:47:38.843Z,15.47
2022-10-25T00:50:31.754Z,15.45
2022-10-25T00:53:08.173Z,15.45
2022-10-25T00:55:42.973Z,15.44
2022-10-25T00:58:14.829Z,15.40
2022-10-25T01:00:46.849Z,15.39
2022-10-25T01:03:20.742Z,15.40
2022-10-25T01:05:53.217Z,15.40
2022-10-25T01:08:25.754Z,15.39
2022-10-25T01:10:56.907Z,15.38
2022-10-25T01:13:27.918Z,15.37
2022-10-25T01:16:10.696Z,15.36
2022-10-25T01:18:49.502Z,15.35
2022-10-25T01:21:42.482Z,15.33
2022-10-25T01:24:52.232Z,15.32
2022-10-25T01:30:56.878Z,15.29
2022-10-25T01:33:34.602Z,15.28
2022-10-25T01:38:55.838Z,15.23
2022-10-25T01:41:36.552Z,15.20
2022-10-25T01:44:19.213Z,15.16
2022-10-25T01:46:56.939Z,15.14
2022-10-25T01:49:36.639Z,15.14
2022-10-25T01:52:07.552Z,15.13
2022-10-25T01:54:38.740Z,15.10
2022-10-25T01:57:22.862Z,15.06
2022-10-25T02:00:08.312Z,15.03
2022-10-25T02:03:11.161Z,14.97
2022-10-25T02:05:57.290Z,14.93
2022-10-25T02:08:36.065Z,14.89
2022-10-25T02:11:12.723Z,14.87
2022-10-25T02:13:54.001Z,14.86
2022-10-25T02:16:28.287Z,14.85
2022-10-25T02:19:03.185Z,14.84
2022-10-25T02:21:37.615Z,14.81
2022-10-25T02:24:13.414Z,14.79
2022-10-25T02:26:46.266Z,14.78
2022-10-25T02:29:18.448Z,14.78
2022-10-25T02:31:49.955Z,14.78
2022-10-25T02:34:21.365Z,14.76
2022-10-25T02:36:53.318Z,14.75
2022-10-25T02:39:27.911Z,14.72
2022-10-25T02:42:02.587Z,14.73
2022-10-25T02:44:33.611Z,14.75
2022-10-25T02:47:04.446Z,14.77
2022-10-25T02:49:35.317Z,14.76
2022-10-25T02:52:06.435Z,14.74
2022-10-25T02:54:37.339Z,14.73
2022-10-25T02:57:08.310Z,14.74
2022-10-25T02:59:39.170Z,14.75
2022-10-25T03:02:10.028Z,14.77
2022-10-25T03:04:40.880Z,14.76
2022-10-25T03:07:11.693Z,14.76
2022-10-25T03:09:42.485Z,14.75
2022-10-25T03:12:13.307Z,14.74
2022-10-25T03:14:44.181Z,14.73
2022-10-25T03:17:15.090Z,14.72
2022-10-25T03:19:45.950Z,14.71
2022-10-25T03:22:16.831Z,14.71
2022-10-25T03:24:47.852Z,14.68
2022-10-25T03:27:18.906Z,14.68
2022-10-25T03:29:49.707Z,14.66
2022-10-25T03:32:20.537Z,14.66
2022-10-25T03:34:51.722Z,14.66
2022-10-25T03:37:22.538Z,14.66
2022-10-25T03:39:54.220Z,14.66
2022-10-25T03:42:25.022Z,14.64
2022-10-25T03:44:55.868Z,14.63
2022-10-25T03:47:26.772Z,14.61
2022-10-25T03:49:57.592Z,14.58
2022-10-25T03:52:28.526Z,14.59
2022-10-25T03:54:59.375Z,14.59
2022-10-25T03:57:30.201Z,14.58
2022-10-25T04:00:01.097Z,14.57
2022-10-25T04:02:31.925Z,14.56
2022-10-25T04:05:02.887Z,14.57
2022-10-25T04:07:33.820Z,14.59
2022-10-25T04:10:04.827Z,14.59
2022-10-25T04:12:35.645Z,14.59
2022-10-25T04:15:07.341Z,14.59
2022-10-25T04:17:38.185Z,14.58
2022-10-25T04:20:12.580Z,14.57
2022-10-25T04:22:43.420Z,14.56
2022-10-25T04:25:14.233Z,14.55
2022-10-25T04:27:45.322Z,14.53
2022-10-25T04:30:17.070Z,14.54
2022-10-25T04:32:48.118Z,14.51
2022-10-25T04:35:19.344Z,14.51
2022-10-25T04:37:52.002Z,14.51
2022-10-25T04:40:24.918Z,14.52
2022-10-25T04:42:56.337Z,14.52
2022-10-25T04:45:27.169Z,14.53
2022-10-25T04:47:58.087Z,14.54
2022-10-25T04:50:29.132Z,14.54
2022-10-25T04:52:59.964Z,14.51
2022-10-25T04:55:31.515Z,14.48
2022-10-25T04:58:02.509Z,14.48
2022-10-25T05:00:33.411Z,14.46
2022-10-25T05:03:04.767Z,14.45
2022-10-25T05:05:36.246Z,14.45
2022-10-25T05:08:07.224Z,14.45
2022-10-25T05:10:38.117Z,14.45
2022-10-25T05:13:08.991Z,14.44
2022-10-25T05:15:39.819Z,14.45
2022-10-25T05:18:10.690Z,14.47
2022-10-25T05:20:41.556Z,14.48
2022-10-25T05:23:12.369Z,14.48
2022-10-25T05:25:43.191Z,14.47
2022-10-25T05:28:14.103Z,14.47
2022-10-25T05:30:45.627Z,14.44
2022-10-25T05:33:16.415Z,14.42
2022-10-25T05:35:47.281Z,14.40
2022-10-25T05:38:19.632Z,14.40
2022-10-25T05:40:56.889Z,14.40
2022-10-25T05:43:28.450Z,14.40
2022-10-25T05:46:08.699Z,14.40
2022-10-25T05:48:42.349Z,14.40
2022-10-25T05:54:11.023Z,14.43
2022-10-25T05:56:42.913Z,14.45
2022-10-25T05:59:15.792Z,14.47
2022-10-25T06:01:47.935Z,14.49
2022-10-25T06:04:19.566Z,14.51
2022-10-25T06:06:52.248Z,14.54
2022-10-25T06:09:23.176Z,14.58
2022-10-25T06:11:53.952Z,14.70
2022-10-25T06:14:24.812Z,15.11
2022-10-25T06:16:55.667Z,15.64
2022-10-25T06:19:26.526Z,16.20
2022-10-25T06:21:57.988Z,16.77
2022-10-25T06:24:29.740Z,17.37
2022-10-25T06:27:00.642Z,17.97
2022-10-25T06:29:31.487Z,18.51
2022-10-25T06:32:02.419Z,18.79
2022-10-25T06:34:33.359Z,19.30
2022-10-25T06:37:04.691Z,19.91
2022-10-25T06:39:35.510Z,20.51
2022-10-25T06:42:06.589Z,21.09
2022-10-25T06:44:38.205Z,21.72
2022-10-25T06:47:17.654Z,22.03
2022-10-25T06:49:49.656Z,22.30
2022-10-25T06:52:20.494Z,22.17
2022-10-25T06:54:51.354Z,22.02
2022-10-25T06:57:22.172Z,22.15
2022-10-25T06:59:53.017Z,22.60
2022-10-25T07:02:23.988Z,23.02
2022-10-25T07:04:55.041Z,23.39
2022-10-25T07:07:25.843Z,23.81
2022-10-25T07:09:56.652Z,24.22
2022-10-25T07:12:27.445Z,24.57
2022-10-25T07:14:58.366Z,24.95
2022-10-25T07:17:29.912Z,25.37
2022-10-25T07:20:03.570Z,25.75
2022-10-25T07:22:34.589Z,26.12
2022-10-25T07:25:06.180Z,26.50
2022-10-25T07:27:37.022Z,26.93
2022-10-25T07:30:09.466Z,27.37
2022-10-25T07:32:42.461Z,27.67
2022-10-25T07:35:13.568Z,27.92
2022-10-25T07:37:44.466Z,28.38
2022-10-25T07:40:16.234Z,28.93
2022-10-25T07:42:47.054Z,29.40
2022-10-25T07:45:22.200Z,29.86
2022-10-25T07:47:55.642Z,30.13
2022-10-25T07:50:26.413Z,30.27
2022-10-25T07:52:58.633Z,29.95
2022-10-25T07:55:29.970Z,29.30
2022-10-25T07:58:04.771Z,28.70
2022-10-25T08:00:36.524Z,28.34
2022-10-25T08:03:07.561Z,28.39
2022-10-25T08:05:38.421Z,28.65
2022-10-25T08:08:09.409Z,28.86
2022-10-25T08:10:42.422Z,28.54
2022-10-25T08:13:13.356Z,27.98
2022-10-25T08:15:50.080Z,27.46
2022-10-25T08:18:21.029Z,26.99
2022-10-25T08:21:07.732Z,26.60
2022-10-25T08:23:38.551Z,26.69
2022-10-25T08:26:09.723Z,27.13
2022-10-25T08:28:40.541Z,27.56
2022-10-25T08:31:11.331Z,27.50
2022-10-25T08:33:42.368Z,27.15
2022-10-25T08:36:13.428Z,26.56
2022-10-25T08:38:44.248Z,25.92
2022-10-25T08:41:24.130Z,25.25
2022-10-25T08:44:16.735Z,24.58
2022-10-25T08:46:55.001Z,23.81
2022-10-25T08:49:30.668Z,23.16
2022-10-25T08:52:02.952Z,22.55
2022-10-25T08:54:37.155Z,22.06
2022-10-25T08:57:18.760Z,21.66
2022-10-25T08:59:54.480Z,21.25
2022-10-25T09:02:34.759Z,20.91
2022-10-25T09:05:11.061Z,20.60
2022-10-25T09:08:05.405Z,20.37
2022-10-25T09:10:49.922Z,20.14
2022-10-25T09:16:18.230Z,19.78
2022-10-25T09:18:52.763Z,19.65
2022-10-25T09:21:39.424Z,19.52
2022-10-25T09:24:21.520Z,19.38
2022-10-25T09:27:01.174Z,19.32
2022-10-25T09:29:36.977Z,19.25
2022-10-25T09:32:17.370Z,19.18
2022-10-25T09:34:48.316Z,19.12
2022-10-25T09:37:26.376Z,19.07
2022-10-25T09:40:00.885Z,19.11
2022-10-25T09:42:38.973Z,19.10
2022-10-25T09:45:17.574Z,19.17
2022-10-25T09:47:55.882Z,19.20
2022-10-25T09:50:31.668Z,19.34
2022-10-25T09:53:11.968Z,19.55
2022-10-25T09:55:50.688Z,19.66
2022-10-25T09:58:24.467Z,19.75
2022-10-25T10:00:57.814Z,19.82
2022-10-25T10:03:33.238Z,19.85
2022-10-25T10:06:08.621Z,19.85
2022-10-25T10:08:41.858Z,19.83
2022-10-25T10:11:18.696Z,19.84
2022-10-25T10:13:53.792Z,19.86
2022-10-25T10:16:28.133Z,19.89
2022-10-25T10:19:18.318Z,19.92
2022-10-25T10:21:53.089Z,19.94
2022-10-25T10:24:27.275Z,19.98
2022-10-25T10:26:59.971Z,20.00
2022-10-25T10:29:33.161Z,20.02
2022-10-25T10:32:06.640Z,20.01
2022-10-25T10:34:43.760Z,19.99
2022-10-25T10:37:21.402Z,20.00
2022-10-25T10:39:57.293Z,19.96
2022-10-25T10:42:36.677Z,19.88
2022-10-25T10:45:18.423Z,19.75
2022-10-25T10:47:59.780Z,19.67
2022-10-25T10:50:32.976Z,19.57
2022-10-25T10:53:07.423Z,19.49
2022-10-25T10:55:40.618Z,19.44
2022-10-25T10:58:18.766Z,19.47
2022-10-25T11:00:54.199Z,19.54
2022-10-25T11:03:59.774Z,19.58
2022-10-25T11:06:34.597Z,19.60
2022-10-25T11:09:17.975Z,19.58
2022-10-25T11:12:07.850Z,19.54
2022-10-25T11:14:39.098Z,19.46
2022-10-25T11:17:14.233Z,19.40
2022-10-25T11:20:00.232Z,19.33
2022-10-25T11:22:53.690Z,19.27
2022-10-25T11:25:37.873Z,19.21
2022-10-25T11:28:22.828Z,19.17
2022-10-25T11:31:02.669Z,19.09
2022-10-25T11:33:50.437Z,18.99
2022-10-25T11:36:39.754Z,18.86
2022-10-25T11:39:23.619Z,18.77
2022-10-25T11:42:01.227Z,18.70
2022-10-25T11:44:55.122Z,18.68
2022-10-25T11:47:43.142Z,18.68
2022-10-25T11:50:29.907Z,18.70
2022-10-25T11:53:21.569Z,18.71
2022-10-25T11:55:57.340Z,18.68
2022-10-25T11:58:41.054Z,18.64
2022-10-25T12:01:27.105Z,18.60
2022-10-25T12:04:19.015Z,18.59
2022-10-25T12:06:59.172Z,18.60
2022-10-25T12:09:41.395Z,18.60
2022-10-25T12:12:16.050Z,18.59
2022-10-25T12:14:52.259Z,18.58
2022-10-25T12:17:27.945Z,18.57
2022-10-25T12:20:03.580Z,18.55
2022-10-25T12:22:39.307Z,18.52
2022-10-25T12:25:21.635Z,18.51
2022-10-25T12:27:57.149Z,18.50
2022-10-25T12:30:28.459Z,18.48
2022-10-25T12:33:04.974Z,18.47
2022-10-25T12:35:43.223Z,18.43
2022-10-25T12:38:20.997Z,18.40
2022-10-25T12:40:54.708Z,18.36
2022-10-25T12:43:32.805Z,18.35
2022-10-25T12:46:37.752Z,18.35
2022-10-25T12:49:23.290Z,18.36
2022-10-25T12:52:11.690Z,18.38
2022-10-25T12:54:58.674Z,18.42
2022-10-25T12:57:37.834Z,18.46
2022-10-25T13:00:14.852Z,18.48
2022-10-25T13:03:20.894Z,18.46
2022-10-25T13:06:28.270Z,18.46
2022-10-25T13:09:09.546Z,18.45
2022-10-25T13:11:43.684Z,18.44
2022-10-25T13:14:26.741Z,18.42
2022-10-25T13:17:34.735Z,18.39
2022-10-25T13:20:36.145Z,18.37
2022-10-25T13:23:59.673Z,18.38
2022-10-25T13:27:00.385Z,18.39
2022-10-25T13:30:00.512Z,18.38
2022-10-25T13:32:32.684Z,18.37
2022-10-25T13:35:04.430Z,18.36
2022-10-25T13:38:21.139Z,18.33
2022-10-25T13:41:17.570Z,18.30
2022-10-25T13:44:05.672Z,18.27
2022-10-25T13:46:39.888Z,18.27
2022-10-25T13:49:31.848Z,18.28
2022-10-25T13:52:05.497Z,18.30
2022-10-25T13:54:48.558Z,18.32
2022-10-25T13:57:56.689Z,18.32
2022-10-25T14:00:41.955Z,18.32
2022-10-25T14:03:36.322Z,18.31
2022-10-25T14:06:24.011Z,18.28
2022-10-25T14:09:23.887Z,18.24
2022-10-25T14:12:11.185Z,18.17
2022-10-25T14:14:55.957Z,18.10
2022-10-25T14:17:33.437Z,18.02
2022-10-25T14:20:10.282Z,17.96
2022-10-25T14:22:43.575Z,17.92
2022-10-25T14:25:24.311Z,17.88
2022-10-25T14:28:12.808Z,17.85
2022-10-25T14:30:45.938Z,17.81
2022-10-25T14:33:43.436Z,17.77
2022-10-25T14:36:29.253Z,17.73
2022-10-25T14:39:01.718Z,17.68
2022-10-25T14:41:34.310Z,17.62
2022-10-25T14:44:21.132Z,17.58
2022-10-25T14:46:52.370Z,17.53
2022-10-25T14:49:24.247Z,17.49
2022-10-25T14:51:58.943Z,17.43
2022-10-25T14:54:34.205Z,17.39
2022-10-25T14:57:07.622Z,17.34
2022-10-25T14:59:46.283Z,17.28
2022-10-25T15:02:20.416Z,17.22
2022-10-25T15:04:55.185Z,17.17
2022-10-25T15:07:30.944Z,17.09
2022-10-25T15:12:36.114Z,16.99
2022-10-25T15:15:32.564Z,16.94
2022-10-25T15:18:03.384Z,16.89
2022-10-25T15:20:35.614Z,16.84
2022-10-25T15:23:15.564Z,16.80
2022-10-25T15:25:46.386Z,16.77
2022-10-25T15:28:19.824Z,16.73
2022-10-25T15:31:05.119Z,16.72
2022-10-25T15:33:36.359Z,16.69
2022-10-25T15:36:08.600Z,16.68
2022-10-25T15:39:06.813Z,16.68
2022-10-25T15:41:33.038Z,16.66
2022-10-25T15:44:03.855Z,16.64
2022-10-25T15:46:38.287Z,16.62
2022-10-25T15:49:14.697Z,16.58
2022-10-25T15:51:47.139Z,16.55
2022-10-25T15:54:20.904Z,16.53
2022-10-25T15:56:54.142Z,16.50
2022-10-25T15:59:24.989Z,16.48
2022-10-25T16:01:56.150Z,16.46
2022-10-25T16:04:27.007Z,16.45
2022-10-25T16:06:58.081Z,16.44
2022-10-25T16:09:28.946Z,16.42
2022-10-25T16:12:00.917Z,16.39
2022-10-25T16:14:32.173Z,16.36
2022-10-25T16:17:03.308Z,16.33
2022-10-25T16:19:34.371Z,16.31
2022-10-25T16:22:05.153Z,16.30
2022-10-25T16:24:36.000Z,16.31
2022-10-25T16:27:07.017Z,16.32
2022-10-25T16:29:37.566Z,16.33
2022-10-25T16:32:08.650Z,16.32
2022-10-25T16:34:42.559Z,16.31
2022-10-25T16:37:13.358Z,16.29
2022-10-25T16:39:44.166Z,16.28
2022-10-25T16:42:32.650Z,16.27
2022-10-25T16:45:14.511Z,16.27
2022-10-25T16:47:45.841Z,16.27
2022-10-25T16:50:23.193Z,16.28
2022-10-25T16:52:56.178Z,16.28
2022-10-25T16:55:30.544Z,16.28
2022-10-25T16:58:02.460Z,16.28
2022-10-25T17:00:37.225Z,16.27
2022-10-25T17:03:07.220Z,16.26
2022-10-25T17:05:39.979Z,16.26
2022-10-25T17:08:11.142Z,16.24
2022-10-25T17:10:45.221Z,16.23
2022-10-25T17:13:16.398Z,16.22
2022-10-25T17:15:52.627Z,16.19
2022-10-25T17:18:26.897Z,16.16
2022-10-25T17:20:59.323Z,16.12
2022-10-25T17:23:30.216Z,16.10
2022-10-25T17:26:02.869Z,16.08
2022-10-25T17:28:35.292Z,16.07
2022-10-25T17:31:15.361Z,16.07
2022-10-25T17:33:47.285Z,16.07
2022-10-25T17:36:20.223Z,16.07
2022-10-25T17:38:51.848Z,16.07
2022-10-25T17:41:30.836Z,16.06
2022-10-25T17:44:02.966Z,16.06
2022-10-25T17:46:35.284Z,16.04
2022-10-25T17:49:06.445Z,16.04
2022-10-25T17:51:37.797Z,16.04
2022-10-25T17:54:10.626Z,16.02
2022-10-25T17:56:41.561Z,16.01
2022-10-25T17:59:12.936Z,15.98
2022-10-25T18:01:44.849Z,15.97
2022-10-25T18:04:16.296Z,15.95
2022-10-25T18:06:47.363Z,15.95
2022-10-25T18:09:18.476Z,15.95
2022-10-25T18:11:49.489Z,15.96
2022-10-25T18:14:20.483Z,15.97
2022-10-25T18:16:51.604Z,15.97
2022-10-25T18:19:24.388Z,15.95
2022-10-25T18:22:00.454Z,15.94
2022-10-25T18:24:33.217Z,15.93
2022-10-25T18:27:04.327Z,15.93
2022-10-25T18:29:36.787Z,15.92
2022-10-25T18:32:08.005Z,15.91
2022-10-25T18:34:38.979Z,15.89
2022-10-25T18:37:09.864Z,15.88
2022-10-25T18:39:41.514Z,15.85
2022-10-25T18:42:12.407Z,15.83
2022-10-25T18:44:43.287Z,15.81
2022-10-25T18:47:14.089Z,15.79
2022-10-25T18:49:46.294Z,15.76
2022-10-25T18:52:17.444Z,15.73
2022-10-25T18:54:48.412Z,15.72
2022-10-25T18:57:19.352Z,15.73
2022-10-25T18:59:52.976Z,15.75
2022-10-25T19:02:24.202Z,15.76
2022-10-25T19:04:55.777Z,15.76
2022-10-25T19:07:27.053Z,15.76
2022-10-25T19:09:58.104Z,15.76
2022-10-25T19:12:29.368Z,15.76
2022-10-25T19:15:00.421Z,15.75
2022-10-25T19:17:31.510Z,15.74
2022-10-25T19:20:03.375Z,15.73
2022-10-25T19:22:34.633Z,15.71
2022-10-25T19:25:06.015Z,15.70
2022-10-25T19:27:37.114Z,15.70
2022-10-25T19:30:09.502Z,15.68
2022-10-25T19:32:41.634Z,15.67
2022-10-25T19:35:13.094Z,15.66
2022-10-25T19:37:44.134Z,15.65
2022-10-25T19:40:15.646Z,15.64
2022-10-25T19:42:46.764Z,15.61
2022-10-25T19:45:17.751Z,15.59
2022-10-25T19:47:50.354Z,15.56
2022-10-25T19:50:23.950Z,15.52
2022-10-25T19:52:54.753Z,15.49
2022-10-25T19:55:25.929Z,15.45
2022-10-25T19:57:57.007Z,15.43
2022-10-25T20:00:27.945Z,15.39
2022-10-25T20:02:58.891Z,15.37
2022-10-25T20:05:30.007Z,15.35
2022-10-25T20:08:01.285Z,15.34
2022-10-25T20:10:32.404Z,15.35
2022-10-25T20:13:04.843Z,15.35
2022-10-25T20:15:35.932Z,15.37
2022-10-25T20:18:09.096Z,15.38
2022-10-25T20:20:41.618Z,15.39
2022-10-25T20:23:27.222Z,15.39
2022-10-25T20:25:59.590Z,15.38
2022-10-25T20:28:30.807Z,15.36
2022-10-25T20:31:06.019Z,15.35
2022-10-25T20:33:37.145Z,15.33
2022-10-25T20:36:11.568Z,15.32
2022-10-25T20:38:48.768Z,15.30
2022-10-25T20:41:21.892Z,15.26
2022-10-25T20:43:56.983Z,15.22
2022-10-25T20:46:26.852Z,15.18
2022-10-25T20:48:59.836Z,15.14
2022-10-25T20:51:32.212Z,15.11
2022-10-25T20:54:11.691Z,15.08
2022-10-25T20:56:43.758Z,15.03
2022-10-25T20:59:15.147Z,14.99
2022-10-25T21:01:46.499Z,14.94
2022-10-25T21:04:25.857Z,14.91
2022-10-25T21:07:07.406Z,14.88
2022-10-25T21:09:42.195Z,14.85
2022-10-25T21:12:22.280Z,14.80
2022-10-25T21:14:55.758Z,14.77
2022-10-25T21:17:27.746Z,14.73
2022-10-25T21:19:58.984Z,14.71
2022-10-25T21:22:30.051Z,14.68
2022-10-25T21:25:01.311Z,14.65
2022-10-25T21:27:32.570Z,14.60
2022-10-25T21:30:07.141Z,14.59
2022-10-25T21:32:40.599Z,14.58
2022-10-25T21:35:11.938Z,14.56
2022-10-25T21:37:45.474Z,14.54
2022-10-25T21:40:20.871Z,14.53
2022-10-25T21:42:52.138Z,14.50
2022-10-25T21:45:23.066Z,14.48
2022-10-25T21:47:53.927Z,14.45
2022-10-25T21:50:24.889Z,14.42
2022-10-25T21:52:57.813Z,14.39
2022-10-25T21:55:28.748Z,14.37
2022-10-25T21:58:00.649Z,14.35
2022-10-25T22:00:34.024Z,14.33
2022-10-25T22:03:07.012Z,14.31
2022-10-25T22:05:45.087Z,14.28
2022-10-25T22:08:15.954Z,14.25
2022-10-25T22:13:38.665Z,14.20
2022-10-25T22:16:12.669Z,14.18
2022-10-25T22:18:43.987Z,14.16
2022-10-25T22:21:15.117Z,14.14
2022-10-25T22:23:45.952Z,14.12
2022-10-25T22:26:19.248Z,14.12
2022-10-25T22:28:54.826Z,14.11
2022-10-25T22:31:26.637Z,14.10
2022-10-25T22:33:59.097Z,14.10
2022-10-25T22:36:32.486Z,14.09
2022-10-25T22:39:04.135Z,14.08
2022-10-25T22:41:35.223Z,14.06
2022-10-25T22:44:06.825Z,14.03
2022-10-25T22:46:38.412Z,14.00
2022-10-25T22:49:11.002Z,13.97
2022-10-25T22:51:41.912Z,13.93
2022-10-25T22:54:12.699Z,13.89
2022-10-25T22:56:43.574Z,13.84
2022-10-25T22:59:14.971Z,13.80
2022-10-25T23:01:45.797Z,13.76
2022-10-25T23:04:16.653Z,13.72
2022-10-25T23:06:47.626Z,13.69
2022-10-25T23:09:18.429Z,13.66
2022-10-25T23:11:50.043Z,13.64
2022-10-25T23:14:21.226Z,13.63
2022-10-25T23:16:52.011Z,13.60
2022-10-25T23:19:22.833Z,13.57
2022-10-25T23:21:53.726Z,13.54
2022-10-25T23:24:24.565Z,13.51
2022-10-25T23:26:55.843Z,13.52
2022-10-25T23:29:26.618Z,13.50
2022-10-25T23:31:57.376Z,13.47
2022-10-25T23:34:28.201Z,13.45
2022-10-25T23:36:59.100Z,13.43
2022-10-25T23:39:29.974Z,13.42
2022-10-25T23:42:00.846Z,13.41
2022-10-25T23:44:31.725Z,13.43
2022-10-25T23:47:02.519Z,13.43
2022-10-25T23:49:33.313Z,13.45
2022-10-25T23:52:04.185Z,13.44
2022-10-25T23:54:35.102Z,13.43
2022-10-25T23:57:06.008Z,13.43
2022-10-25T23:59:36.805Z,13.44
